Flight Track Log - Related Links

Times and Time Zones

All times are in EDT time to prevent confusion due to time zone crossing. See the N999TF flight status page for this flight to view local times or setup timezone preferences in your user account.

Time Position Orientation Groundspeed Altitude Reporting Facility
EDT Latitude Longitude Course Direction KTS MPH feet Rate Location/Type
Thu 05:34:35 PM 44.1883 -121.4081 20° North 158 182 14,400  Level Seattle Center
Thu 05:35:36 PM 44.2333 -121.3850 20° North 165 190 14,400 -246 Level Seattle Center
Thu 05:36:37 PM 44.2700 -121.4208 325° Northwest 171 197 13,900 -246 Descending Seattle Center
Thu 05:37:38 PM 44.3019 -121.4650 315° West 165 190 13,900  Level Seattle Center
Thu 05:38:39 PM 44.3322 -121.5075 315° West 157 181 13,900  Level Seattle Center
Thu 05:39:40 PM 44.3619 -121.5500 314° West 156 180 13,900  Level Seattle Center
Thu 05:40:41 PM 44.3919 -121.5908 316° Northwest 154 177 13,900  Level Seattle Center
Thu 05:41:41 PM 44.4211 -121.6300 316° Northwest 148 170 13,900  Level Seattle Center
Thu 05:42:42 PM 44.4511 -121.6703 316° Northwest 148 170 13,900  Level Seattle Center
Thu 05:43:43 PM 44.4819 -121.7142 315° West 152 175 13,900  Level Seattle Center
Thu 05:44:44 PM 44.5142 -121.7561 317° Northwest 156 180 13,900  Level Seattle Center
Thu 05:45:45 PM 44.5425 -121.7939 316° Northwest 144 166 13,900  Level Seattle Center
Thu 05:46:46 PM 44.5667 -121.8292 314° West 128 147 13,900  Level Seattle Center
Thu 05:47:47 PM 44.6003 -121.8736 317° Northwest 138 159 13,900  Level Seattle Center
Thu 05:48:48 PM 44.6303 -121.9128 317° Northwest 146 168 13,900  Level Seattle Center
Thu 05:49:49 PM 44.6619 -121.9556 316° Northwest 155 178 13,900  Level Seattle Center
Thu 05:50:49 PM 44.6933 -121.9961 317° Northwest 155 178 13,900  Level Seattle Center
Thu 05:51:50 PM 44.7214 -122.0358 315° West 145 167 13,900 -246 Level Seattle Center
Thu 05:52:51 PM 44.7525 -122.0761 317° Northwest 146 168 13,400 -583 Descending Seattle Center
Thu 05:53:33 PM 44.7731 -122.1069 313° West 153 176 12,900 -787 Descending Seattle Center
Thu 05:53:52 PM 44.7825 -122.1189 318° Northwest 150 173 12,600 -977 Descending Seattle Center
Thu 05:54:16 PM 44.7972 -122.1394 315° West 157 181 12,200 -689 Descending Seattle Center
Thu 05:54:53 PM 44.8144 -122.1619 317° Northwest 155 178 11,900 -590 Descending Seattle Center
Thu 05:55:17 PM 44.8278 -122.1819 313° West 157 181 11,600 -689 Descending Seattle Center
Thu 05:55:54 PM 44.8447 -122.2036 318° Northwest 155 178 11,200 -778 Descending Seattle Center
Thu 05:56:11 PM 44.8578 -122.2214 316° Northwest 156 180 10,900 -295 Descending Seattle Center
Thu 05:56:55 PM 44.8794 -122.2506 316° Northwest 156 180 10,900  Level Seattle Center
Thu 05:57:30 PM 44.8953 -122.2761 311° West 146 168 10,900  Level Seattle Center
Thu 05:57:56 PM 44.9072 -122.2897 321° Northwest 146 168 10,900 -393 Level Seattle Center
Thu 05:58:31 PM 44.9250 -122.3158 314° West 145 167 10,500 -689 Descending Seattle Center
Thu 05:58:57 PM 44.9369 -122.3333 314° West 151 174 10,200 -800 Descending Seattle Center
Thu 05:59:31 PM 44.9542 -122.3619 310° West 156 180 9,700 -800 Descending Seattle Center
Thu 05:59:57 PM 44.9667 -122.3778 318° Northwest 153 176 9,400 -885 Descending Seattle Center
Thu 06:00:32 PM 44.9772 -122.4106 294° West 156 180 8,800 -885 Descending Seattle Center
Thu 06:00:58 PM 44.9858 -122.4322 299° West 144 166 8,500 -806 Descending Seattle Center
Thu 06:01:39 PM 44.9947 -122.4647 291° West 143 165 7,900 -787 Descending Seattle Center
Thu 06:01:59 PM 45.0028 -122.4847 300° West 144 166 7,700 -750 Descending Seattle Center
Thu 06:02:27 PM 45.0086 -122.5108 288° West 150 173 7,300 -885 Descending Seattle Center
Thu 06:03:00 PM 45.0186 -122.5375 298° West 146 168 6,800 -1,180 Descending Seattle Center
Thu 06:03:28 PM 45.0289 -122.5578 306° West 140 161 6,100 -1,475 Descending Seattle Center
Thu 06:04:01 PM 45.0442 -122.5767 319° Northwest 136 157 5,300 -1,444 Descending Seattle Center
Thu 06:04:22 PM 45.0525 -122.5881 316° Northwest 122 140 4,800 -1,279 Descending Seattle Center
Thu 06:05:02 PM 45.0686 -122.6092 317° Northwest 125 144 4,000 -1,200 Descending Seattle Center
Thu 06:05:17 PM 45.0772 -122.6144 337° Northwest 131 151 3,700 -600 Descending Seattle Center
Thu 06:06:02 PM 45.1025 -122.6342 331° Northwest 127 146 3,400 -400 Descending Seattle Center

Login

Don't have an account? Register now (free) for customized features, flight alerts, and more!